Ufo 3 — IUNV — position and weather

sailwx.info

Track history (hours):
 
Tides and Currents Weather Stations Pressure Air Temp Water Temp Dewpoint Dewpoint Depression Visibility Wind Speed Wind Dir Waves Ship Positions

Ufo 3

Last reported at 2014-Oct-02 10:09 UTC. Time now 2014-Oct-02 12:40 UTC.
Position N 44°06' E 009°44'.

Length 28 m.

Type: Passenger vessel. MMSI: 247031600.

Date/timePositionNaut miles runAvg speedWind from/ knotsBaromVisibWave heightAir tempDewpointWater temp
2014-Oct-02 10:09N 44°06' E 009°44'4 7.0
2014-Oct-02 09:33N 44°09' E 009°39'4 4.2
2014-Oct-02 08:32N 44°05' E 009°43'5 4.9
2014-Oct-02 07:33N 44°06' E 009°50'3 0.2
2014-Oct-01 17:17N 44°03' E 009°51'1115.0
2014-Oct-01 16:33N 44°08' E 009°37'5 4.6
2014-Oct-01 15:26N 44°06' E 009°44'5 6.0
2014-Oct-01 14:33N 44°03' E 009°50'4 3.9
2014-Oct-01 13:33N 44°05' E 009°45'1 0.5
2014-Oct-01 10:24N 44°06' E 009°44'5 6.1
2014-Oct-01 09:34N 44°05' E 009°51'2 1.7
2014-Oct-01 08:33N 44°03' E 009°50'0 0.0
2014-Oct-01 07:33N 44°03' E 009°50'0 0.4
2014-Oct-01 06:33N 44°03' E 009°51'0 0.0
2014-Sep-30 15:23N 44°03' E 009°51'10 4.8
2014-Sep-30 13:19N 44°09' E 009°39'4 5.2
2014-Sep-30 12:27N 44°06' E 009°44'5 5.8
2014-Sep-30 11:33N 44°03' E 009°50'0 0.0
2014-Sep-30 10:33N 44°03' E 009°50'1 1.3
2014-Sep-30 09:34N 44°03' E 009°48'8 8.2
2014-Sep-30 08:31N 44°09' E 009°39'2 2.1
2014-Sep-30 07:34N 44°07' E 009°39'9 8.9
2014-Sep-30 06:33N 44°03' E 009°51'3 0.2
2014-Sep-29 15:33N 44°04' E 009°55'6 5.6
2014-Sep-29 14:33N 44°04' E 009°47'6 1.2
2014-Sep-29 09:27N 44°08' E 009°40'4 3.1
2014-Sep-29 08:18N 44°06' E 009°44'5 6.8
2014-Sep-29 07:33N 44°05' E 009°51'2 0.1
2014-Sep-28 16:33N 44°03' E 009°50'5 2.6
2014-Sep-28 14:31N 44°06' E 009°44'5 5.4
2014-Sep-28 13:33N 44°03' E 009°50'0 0.0
2014-Sep-28 12:34N 44°03' E 009°50'0 0.0
2014-Sep-28 11:33N 44°03' E 009°50'0 0.1
2014-Sep-28 10:34N 44°03' E 009°50'1 0.9
2014-Sep-28 09:34N 44°04' E 009°51'1 1.0
2014-Sep-28 08:33N 44°03' E 009°50'0 0.0
2014-Sep-28 07:34N 44°03' E 009°50'0 0.0
2014-Sep-28 06:33N 44°03' E 009°50'0 0.0
2014-Sep-28 05:33N 44°03' E 009°50'3 0.3
2014-Sep-27 16:33N 44°05' E 009°55'11 7.6
2014-Sep-27 15:04N 44°08' E 009°40'0 0.3
2014-Sep-27 13:09N 44°09' E 009°39'3 0.7
2014-Sep-27 08:25N 44°06' E 009°43'1 1.2
2014-Sep-27 07:26N 44°06' E 009°44'0 0.0
2014-Sep-26 09:28N 44°06' E 009°44'8 8.4
2014-Sep-26 08:33N 44°04' E 009°54'3 3.3
2014-Sep-26 07:34N 44°03' E 009°50'0 0.4
2014-Sep-26 06:33N 44°03' E 009°51'2 0.1
2014-Sep-25 14:34N 44°03' E 009°48'8 7.9
2014-Sep-25 13:31N 44°09' E 009°39'1 0.7
2014-Sep-25 12:17N 44°08' E 009°40'1 0.9
2014-Sep-25 11:23N 44°09' E 009°39'4 4.4
2014-Sep-25 10:25N 44°06' E 009°44'2 1.8
2014-Sep-25 09:14N 44°07' E 009°42'2 1.6
2014-Sep-25 08:05N 44°08' E 009°40'2 4.4
2014-Sep-25 07:33N 44°07' E 009°42'7 0.4
2014-Sep-24 15:19N 44°03' E 009°51'1 1.4
2014-Sep-24 14:33N 44°04' E 009°51'4 4.3
2014-Sep-24 13:33N 44°00' E 009°54'1 1.2
2014-Sep-24 12:33N 44°01' E 009°53'2 2.5
2014-Sep-24 11:34N 44°03' E 009°51'4 4.2
2014-Sep-24 10:33N 43°60' E 009°54'1 0.8
2014-Sep-24 09:34N 43°59' E 009°54'1 1.1
2014-Sep-24 08:34N 43°59' E 009°56'1 1.1
2014-Sep-24 07:33N 43°59' E 009°54'5 4.7
2014-Sep-24 06:33N 44°04' E 009°52'10 0.6
2014-Sep-23 13:18N 44°09' E 009°39'4 5.4
2014-Sep-23 12:30N 44°06' E 009°44'5 5.6
2014-Sep-23 11:34N 44°03' E 009°50'0 0.4
2014-Sep-23 10:33N 44°03' E 009°50'5 5.2
2014-Sep-23 09:33N 44°05' E 009°44'5 4.6
2014-Sep-23 08:31N 44°09' E 009°39'3 3.2
2014-Sep-23 07:34N 44°06' E 009°41'7 0.5
2014-Sep-22 16:05N 44°03' E 009°51'610.8
2014-Sep-22 15:33N 44°06' E 009°44'0 0.0
2014-Sep-22 13:27N 44°06' E 009°44'5 5.8
2014-Sep-22 12:33N 44°03' E 009°50'0 0.0
2014-Sep-22 11:33N 44°03' E 009°50'8 6.5
2014-Sep-22 10:16N 44°08' E 009°41'  
Track history (hours):
 
Tides and Currents Weather Stations Pressure Air Temp Water Temp Dewpoint Dewpoint Depression Visibility Wind Speed Wind Dir Waves Ship Positions

Ufo 3

Last reported at 2014-Oct-02 10:09 UTC. Time now 2014-Oct-02 12:40 UTC.
Position N 44°06' E 009°44'.

Length 28 m.

Type: Passenger vessel. MMSI: 247031600.

Date/timePositionNaut miles runAvg speedWind from/ knotsBaromVisibWave heightAir tempDewpointWater temp
2014-Oct-02 10:09N 44°06' E 009°44'4 7.0
2014-Oct-02 09:33N 44°09' E 009°39'4 4.2
2014-Oct-02 08:32N 44°05' E 009°43'5 4.9
2014-Oct-02 07:33N 44°06' E 009°50'3 0.2
2014-Oct-01 17:17N 44°03' E 009°51'1115.0
2014-Oct-01 16:33N 44°08' E 009°37'5 4.6
2014-Oct-01 15:26N 44°06' E 009°44'5 6.0
2014-Oct-01 14:33N 44°03' E 009°50'4 3.9
2014-Oct-01 13:33N 44°05' E 009°45'1 0.5
2014-Oct-01 10:24N 44°06' E 009°44'5 6.1
2014-Oct-01 09:34N 44°05' E 009°51'2 1.7
2014-Oct-01 08:33N 44°03' E 009°50'0 0.0
2014-Oct-01 07:33N 44°03' E 009°50'0 0.4
2014-Oct-01 06:33N 44°03' E 009°51'0 0.0
2014-Sep-30 15:23N 44°03' E 009°51'10 4.8
2014-Sep-30 13:19N 44°09' E 009°39'4 5.2
2014-Sep-30 12:27N 44°06' E 009°44'5 5.8
2014-Sep-30 11:33N 44°03' E 009°50'0 0.0
2014-Sep-30 10:33N 44°03' E 009°50'1 1.3
2014-Sep-30 09:34N 44°03' E 009°48'8 8.2
2014-Sep-30 08:31N 44°09' E 009°39'2 2.1
2014-Sep-30 07:34N 44°07' E 009°39'9 8.9
2014-Sep-30 06:33N 44°03' E 009°51'3 0.2
2014-Sep-29 15:33N 44°04' E 009°55'6 5.6
2014-Sep-29 14:33N 44°04' E 009°47'6 1.2
2014-Sep-29 09:27N 44°08' E 009°40'4 3.1
2014-Sep-29 08:18N 44°06' E 009°44'5 6.8
2014-Sep-29 07:33N 44°05' E 009°51'2 0.1
2014-Sep-28 16:33N 44°03' E 009°50'5 2.6
2014-Sep-28 14:31N 44°06' E 009°44'5 5.4
2014-Sep-28 13:33N 44°03' E 009°50'0 0.0
2014-Sep-28 12:34N 44°03' E 009°50'0 0.0
2014-Sep-28 11:33N 44°03' E 009°50'0 0.1
2014-Sep-28 10:34N 44°03' E 009°50'1 0.9
2014-Sep-28 09:34N 44°04' E 009°51'1 1.0
2014-Sep-28 08:33N 44°03' E 009°50'0 0.0
2014-Sep-28 07:34N 44°03' E 009°50'0 0.0
2014-Sep-28 06:33N 44°03' E 009°50'0 0.0
2014-Sep-28 05:33N 44°03' E 009°50'3 0.3
2014-Sep-27 16:33N 44°05' E 009°55'11 7.6
2014-Sep-27 15:04N 44°08' E 009°40'0 0.3
2014-Sep-27 13:09N 44°09' E 009°39'3 0.7
2014-Sep-27 08:25N 44°06' E 009°43'1 1.2
2014-Sep-27 07:26N 44°06' E 009°44'0 0.0
2014-Sep-26 09:28N 44°06' E 009°44'8 8.4
2014-Sep-26 08:33N 44°04' E 009°54'3 3.3
2014-Sep-26 07:34N 44°03' E 009°50'0 0.4
2014-Sep-26 06:33N 44°03' E 009°51'2 0.1
2014-Sep-25 14:34N 44°03' E 009°48'8 7.9
2014-Sep-25 13:31N 44°09' E 009°39'1 0.7
2014-Sep-25 12:17N 44°08' E 009°40'1 0.9
2014-Sep-25 11:23N 44°09' E 009°39'4 4.4
2014-Sep-25 10:25N 44°06' E 009°44'2 1.8
2014-Sep-25 09:14N 44°07' E 009°42'2 1.6
2014-Sep-25 08:05N 44°08' E 009°40'2 4.4
2014-Sep-25 07:33N 44°07' E 009°42'7 0.4
2014-Sep-24 15:19N 44°03' E 009°51'1 1.4
2014-Sep-24 14:33N 44°04' E 009°51'4 4.3
2014-Sep-24 13:33N 44°00' E 009°54'1 1.2
2014-Sep-24 12:33N 44°01' E 009°53'2 2.5
2014-Sep-24 11:34N 44°03' E 009°51'4 4.2
2014-Sep-24 10:33N 43°60' E 009°54'1 0.8
2014-Sep-24 09:34N 43°59' E 009°54'1 1.1
2014-Sep-24 08:34N 43°59' E 009°56'1 1.1
2014-Sep-24 07:33N 43°59' E 009°54'5 4.7
2014-Sep-24 06:33N 44°04' E 009°52'10 0.6
2014-Sep-23 13:18N 44°09' E 009°39'4 5.4
2014-Sep-23 12:30N 44°06' E 009°44'5 5.6
2014-Sep-23 11:34N 44°03' E 009°50'0 0.4
2014-Sep-23 10:33N 44°03' E 009°50'5 5.2
2014-Sep-23 09:33N 44°05' E 009°44'5 4.6
2014-Sep-23 08:31N 44°09' E 009°39'3 3.2
2014-Sep-23 07:34N 44°06' E 009°41'7 0.5
2014-Sep-22 16:05N 44°03' E 009°51'610.8
2014-Sep-22 15:33N 44°06' E 009°44'0 0.0
2014-Sep-22 13:27N 44°06' E 009°44'5 5.8
2014-Sep-22 12:33N 44°03' E 009°50'0 0.0
2014-Sep-22 11:33N 44°03' E 009°50'8 6.5
2014-Sep-22 10:16N 44°08' E 009°41'  

Dump ship's entire track history